createdAt,value
2022-08-26T00:01:00.273Z,99594.47
2022-08-26T00:06:02.038Z,99596.84
2022-08-26T00:11:04.328Z,99592.81
2022-08-26T00:16:07.824Z,99586.03
2022-08-26T00:21:11.033Z,99584.38
2022-08-26T00:26:13.592Z,99581.66
2022-08-26T00:31:15.525Z,99576.31
2022-08-26T00:36:20.012Z,99570.63
2022-08-26T00:41:22.253Z,99568.94
2022-08-26T00:46:28.983Z,99559.78
2022-08-26T00:51:31.273Z,99564.44
2022-08-26T00:56:56.725Z,99569.13
2022-08-26T01:01:58.469Z,99566.69
2022-08-26T01:07:00.813Z,99559.91
2022-08-26T01:12:03.477Z,99562.09
2022-08-26T01:17:07.476Z,99560.31
2022-08-26T01:22:28.223Z,99564.22
2022-08-26T01:27:32.963Z,99564.25
2022-08-26T01:32:36.397Z,99560.19
2022-08-26T01:37:41.312Z,99558.88
2022-08-26T01:42:43.825Z,99562.19
2022-08-26T01:47:47.490Z,99561.91
2022-08-26T01:52:54.507Z,99557.31
2022-08-26T01:57:57.456Z,99559.91
2022-08-26T02:03:17.630Z,99565.03
2022-08-26T02:08:24.784Z,99558.34
2022-08-26T02:13:31.399Z,99564.78
2022-08-26T02:18:36.238Z,99556.00
2022-08-26T02:23:39.934Z,99554.06
2022-08-26T02:28:56.479Z,99558.44
2022-08-26T02:34:12.960Z,99562.69
2022-08-26T02:39:21.927Z,99564.91
2022-08-26T02:44:24.065Z,99555.31
2022-08-26T02:49:28.033Z,99563.53
2022-08-26T02:54:29.742Z,99560.88
2022-08-26T02:59:32.246Z,99551.31
2022-08-26T03:04:33.991Z,99555.31
2022-08-26T03:09:35.761Z,99552.56
2022-08-26T03:14:37.882Z,99553.94
2022-08-26T03:19:39.539Z,99543.78
2022-08-26T03:24:46.034Z,99547.13
2022-08-26T03:30:06.430Z,99547.44
2022-08-26T03:35:09.097Z,99546.00
2022-08-26T03:40:11.736Z,99537.75
2022-08-26T03:45:15.448Z,99542.28
2022-08-26T03:50:22.987Z,99537.91
2022-08-26T03:55:31.107Z,99538.78
2022-08-26T04:00:32.757Z,99533.91
2022-08-26T04:05:36.136Z,99532.81
2022-08-26T04:10:38.443Z,99535.31
2022-08-26T04:15:40.078Z,99534.88
2022-08-26T04:20:41.732Z,99530.63
2022-08-26T04:25:43.440Z,99532.38
2022-08-26T04:30:45.150Z,99537.38
2022-08-26T04:35:47.830Z,99539.50
2022-08-26T04:40:49.546Z,99544.78
2022-08-26T04:45:51.402Z,99531.09
2022-08-26T04:50:53.348Z,99535.31
2022-08-26T04:55:55.430Z,99533.81
2022-08-26T05:00:57.145Z,99535.78
2022-08-26T05:05:58.854Z,99542.59
2022-08-26T05:11:05.029Z,99546.03
2022-08-26T05:16:11.589Z,99541.88
2022-08-26T05:21:23.424Z,99547.66
2022-08-26T05:26:27.019Z,99548.06
2022-08-26T05:31:31.708Z,99554.75
2022-08-26T05:36:35.473Z,99543.75
2022-08-26T05:41:40.792Z,99540.75
2022-08-26T05:46:44.007Z,99537.25
2022-08-26T05:51:47.530Z,99540.91
2022-08-26T05:56:51.317Z,99530.81
2022-08-26T06:01:54.966Z,99536.31
2022-08-26T06:06:57.637Z,99541.56
2022-08-26T06:12:01.827Z,99539.16
2022-08-26T06:17:03.806Z,99553.38
2022-08-26T06:22:25.506Z,99556.06
2022-08-26T06:27:32.140Z,99555.63
2022-08-26T06:32:34.611Z,99548.84
2022-08-26T06:37:36.849Z,99548.63
2022-08-26T06:42:38.735Z,99540.81
2022-08-26T06:47:40.951Z,99538.34
2022-08-26T06:52:42.670Z,99539.06
2022-08-26T06:57:44.288Z,99540.56
2022-08-26T07:02:46.954Z,99541.38
2022-08-26T07:07:48.990Z,99533.69
2022-08-26T07:12:51.517Z,99537.09
2022-08-26T07:17:53.151Z,99532.66
2022-08-26T07:22:54.851Z,99533.69
2022-08-26T07:27:56.517Z,99533.13
2022-08-26T07:32:59.311Z,99532.97
2022-08-26T07:38:01.699Z,99519.53
2022-08-26T07:43:04.007Z,99528.41
2022-08-26T07:48:05.963Z,99520.56
2022-08-26T07:53:07.731Z,99512.84
2022-08-26T07:58:12.465Z,99510.41
2022-08-26T08:03:15.173Z,99509.59
2022-08-26T08:08:26.795Z,99504.09
2022-08-26T08:13:30.634Z,99502.41
2022-08-26T08:18:33.724Z,99492.94
2022-08-26T08:23:35.922Z,99477.38
2022-08-26T08:28:38.931Z,99466.47
2022-08-26T08:33:40.585Z,99458.63
2022-08-26T08:38:44.450Z,99449.53
2022-08-26T08:43:47.464Z,99443.56
2022-08-26T08:48:57.323Z,99444.81
2022-08-26T08:54:00.633Z,99443.59
2022-08-26T08:59:09.824Z,99442.06
2022-08-26T09:04:28.730Z,99440.69
2022-08-26T09:09:39.241Z,99437.72
2022-08-26T09:14:41.131Z,99420.63
2022-08-26T09:20:06.110Z,99433.81
2022-08-26T09:25:12.170Z,99438.19
2022-08-26T09:30:23.361Z,99424.69
2022-08-26T09:35:27.958Z,99419.47
2022-08-26T09:40:34.882Z,99434.06
2022-08-26T09:45:39.063Z,99438.66
2022-08-26T09:51:03.616Z,99441.38
2022-08-26T09:56:27.549Z,99428.72
2022-08-26T10:01:42.357Z,99425.16
2022-08-26T10:07:05.942Z,99419.75
2022-08-26T10:12:13.384Z,99401.44
2022-08-26T10:17:28.325Z,99393.16
2022-08-26T10:22:44.501Z,99376.56
2022-08-26T10:28:04.760Z,99371.06
2022-08-26T10:33:13.378Z,99374.97
2022-08-26T10:38:18.916Z,99349.63
2022-08-26T10:43:35.778Z,99349.97
2022-08-26T10:48:59.981Z,99327.91
2022-08-26T10:54:04.855Z,99328.13
2022-08-26T10:59:40.030Z,99326.91
2022-08-26T11:04:53.575Z,99316.41
2022-08-26T11:09:56.030Z,99317.75
2022-08-26T11:14:59.390Z,99311.84
2022-08-26T11:20:03.964Z,99314.56
2022-08-26T11:25:16.163Z,99313.16
2022-08-26T11:30:20.230Z,99316.16
2022-08-26T11:35:24.649Z,99301.66
2022-08-26T11:40:37.701Z,99269.38
2022-08-26T11:45:44.930Z,99264.94
2022-08-26T11:51:16.310Z,99247.06
2022-08-26T11:56:31.622Z,99227.97
2022-08-26T12:01:39.977Z,99225.31
2022-08-26T12:06:51.014Z,99217.38
2022-08-26T12:11:57.942Z,99227.44
2022-08-26T12:17:10.450Z,99222.16
2022-08-26T12:22:32.200Z,99232.25
2022-08-26T12:27:42.443Z,99229.41
2022-08-26T12:32:56.649Z,99232.66
2022-08-26T12:38:00.445Z,99221.09
2022-08-26T12:43:04.930Z,99218.13
2022-08-26T12:48:13.555Z,99205.59
2022-08-26T12:53:24.395Z,99209.16
2022-08-26T12:58:39.457Z,99216.81
2022-08-26T13:03:45.372Z,99207.72
2022-08-26T13:08:56.920Z,99207.34
2022-08-26T13:14:07.583Z,99204.28
2022-08-26T13:19:12.161Z,99186.50
2022-08-26T13:24:17.393Z,99182.53
2022-08-26T13:29:19.433Z,99202.13
2022-08-26T13:34:23.039Z,99197.53
2022-08-26T13:39:26.313Z,99215.81
2022-08-26T13:44:28.029Z,99215.97
2022-08-26T13:49:29.723Z,99224.16
2022-08-26T13:54:31.404Z,99220.03
2022-08-26T13:59:33.056Z,99216.91
2022-08-26T14:04:34.689Z,99204.91
2022-08-26T14:09:38.372Z,99194.16
2022-08-26T14:14:40.186Z,99177.16
2022-08-26T14:19:46.056Z,99175.69
2022-08-26T14:24:48.717Z,99169.47
2022-08-26T14:29:50.601Z,99174.09
2022-08-26T14:34:52.813Z,99168.88
2022-08-26T14:39:54.487Z,99159.03
2022-08-26T14:45:01.979Z,99158.53
2022-08-26T14:50:04.530Z,99152.41
2022-08-26T14:55:06.478Z,99139.94
2022-08-26T15:00:08.940Z,99141.56
2022-08-26T15:05:11.671Z,99140.19
2022-08-26T15:10:16.123Z,99148.38
2022-08-26T15:15:18.637Z,99129.41
2022-08-26T15:20:20.413Z,99146.22
2022-08-26T15:25:22.244Z,99153.00
2022-08-26T15:30:23.975Z,99155.66
2022-08-26T15:35:25.655Z,99158.47
2022-08-26T15:40:27.380Z,99163.34
2022-08-26T15:45:29.116Z,99158.38
2022-08-26T15:50:30.929Z,99147.66
2022-08-26T15:55:32.548Z,99167.75
2022-08-26T16:00:34.211Z,99174.91
2022-08-26T16:05:38.039Z,99169.75
2022-08-26T16:10:45.445Z,99182.09
2022-08-26T16:15:51.103Z,99186.59
2022-08-26T16:21:12.866Z,99185.13
2022-08-26T16:26:24.312Z,99187.41
2022-08-26T16:31:26.225Z,99194.50
2022-08-26T16:36:28.066Z,99200.19
2022-08-26T16:41:31.604Z,99188.94
2022-08-26T16:46:34.266Z,99164.53
2022-08-26T16:51:38.137Z,99156.56
2022-08-26T16:56:40.059Z,99168.09
2022-08-26T17:01:41.799Z,99165.63
2022-08-26T17:06:43.450Z,99168.09
2022-08-26T17:11:45.189Z,99165.47
2022-08-26T17:16:47.170Z,99168.69
2022-08-26T17:21:49.249Z,99165.94
2022-08-26T17:26:55.539Z,99163.03
2022-08-26T17:31:57.496Z,99151.88
2022-08-26T17:36:59.531Z,99149.34
2022-08-26T17:42:01.203Z,99131.13
2022-08-26T17:47:02.923Z,99140.47
2022-08-26T17:52:09.618Z,99122.72
2022-08-26T17:57:13.040Z,99135.09
2022-08-26T18:02:14.766Z,99151.03
2022-08-26T18:07:17.337Z,99153.03
2022-08-26T18:12:18.978Z,99167.09
2022-08-26T18:17:20.693Z,99164.59
2022-08-26T18:22:23.288Z,99167.88
2022-08-26T18:27:24.965Z,99176.84
2022-08-26T18:32:26.630Z,99157.47
2022-08-26T18:37:31.424Z,99189.88
2022-08-26T18:42:33.683Z,99206.47
2022-08-26T18:47:35.846Z,99214.84
2022-08-26T18:52:37.858Z,99221.88
2022-08-26T18:57:39.750Z,99239.41
2022-08-26T19:02:41.476Z,99240.50
2022-08-26T19:07:47.894Z,99241.75
2022-08-26T19:12:52.117Z,99220.28
2022-08-26T19:17:54.136Z,99210.78
2022-08-26T19:22:57.568Z,99219.75
2022-08-26T19:28:04.247Z,99231.78
2022-08-26T19:33:09.995Z,99226.16
2022-08-26T19:38:12.069Z,99224.56
2022-08-26T19:43:13.746Z,99217.13
2022-08-26T19:48:16.273Z,99235.38
2022-08-26T19:53:17.928Z,99230.59
2022-08-26T19:58:19.587Z,99240.72
2022-08-26T20:03:23.757Z,99222.63
2022-08-26T20:08:25.586Z,99211.69
2022-08-26T20:13:28.295Z,99199.72
2022-08-26T20:18:48.467Z,99209.38
2022-08-26T20:23:51.468Z,99213.06
2022-08-26T20:28:53.741Z,99209.16
2022-08-26T20:33:55.751Z,99221.09
2022-08-26T20:38:58.199Z,99229.63
2022-08-26T20:44:00.441Z,99224.72
2022-08-26T20:49:03.109Z,99222.03
2022-08-26T20:54:07.849Z,99230.03
2022-08-26T20:59:10.028Z,99228.56
2022-08-26T21:04:17.719Z,99227.28
2022-08-26T21:09:19.439Z,99225.44
2022-08-26T21:14:25.652Z,99230.31
2022-08-26T21:19:27.689Z,99237.81
2022-08-26T21:24:29.410Z,99243.88
2022-08-26T21:29:31.119Z,99252.69
2022-08-26T21:34:32.811Z,99257.19
2022-08-26T21:39:34.449Z,99250.94
2022-08-26T21:44:36.222Z,99244.63
2022-08-26T21:49:37.906Z,99239.25
2022-08-26T21:54:39.886Z,99225.41
2022-08-26T21:59:52.443Z,99220.78
2022-08-26T22:04:54.153Z,99210.03
2022-08-26T22:09:56.216Z,99202.19
2022-08-26T22:14:57.891Z,99207.50
2022-08-26T22:19:59.594Z,99199.94
2022-08-26T22:25:02.019Z,99213.97
2022-08-26T22:30:04.115Z,99216.38
2022-08-26T22:35:28.211Z,99208.97
2022-08-26T22:40:28.408Z,99200.78
2022-08-26T22:45:31.782Z,99201.75
2022-08-26T22:50:33.518Z,99212.56
2022-08-26T22:55:36.204Z,99213.72
2022-08-26T23:00:38.919Z,99216.63
2022-08-26T23:05:42.207Z,99234.50
2022-08-26T23:10:45.800Z,99231.03
2022-08-26T23:15:47.608Z,99233.31
2022-08-26T23:20:49.254Z,99239.50
2022-08-26T23:25:50.968Z,99235.75
2022-08-26T23:30:53.723Z,99239.31
2022-08-26T23:35:55.430Z,99246.00
2022-08-26T23:40:57.103Z,99262.78
2022-08-26T23:45:59.015Z,99269.56
2022-08-26T23:51:19.138Z,99264.75
2022-08-26T23:56:20.932Z,99272.94
